sensor_id;sensor_type;location;lat;lon;timestamp;temperature;humidity
10390;DHT22;5241;47.830;12.972;2023-05-14T00:01:00;11.00;99.90
10390;DHT22;5241;47.830;12.972;2023-05-14T00:03:25;11.00;99.90
10390;DHT22;5241;47.830;12.972;2023-05-14T00:05:51;11.00;99.90
10390;DHT22;5241;47.830;12.972;2023-05-14T00:08:16;10.80;99.90
10390;DHT22;5241;47.830;12.972;2023-05-14T00:10:42;10.70;99.90
10390;DHT22;5241;47.830;12.972;2023-05-14T00:13:07;10.60;99.90
10390;DHT22;5241;47.830;12.972;2023-05-14T00:15:33;10.50;99.90
10390;DHT22;5241;47.830;12.972;2023-05-14T00:17:59;10.60;99.90
10390;DHT22;5241;47.830;12.972;2023-05-14T00:20:24;10.50;99.90
10390;DHT22;5241;47.830;12.972;2023-05-14T00:22:50;10.50;99.90
10390;DHT22;5241;47.830;12.972;2023-05-14T00:25:15;10.50;99.90
10390;DHT22;5241;47.830;12.972;2023-05-14T00:27:41;10.50;99.90
10390;DHT22;5241;47.830;12.972;2023-05-14T00:30:07;10.50;99.90
10390;DHT22;5241;47.830;12.972;2023-05-14T00:32:32;10.50;99.90
10390;DHT22;5241;47.830;12.972;2023-05-14T00:34:58;10.50;99.90
10390;DHT22;5241;47.830;12.972;2023-05-14T00:37:24;10.50;99.90
10390;DHT22;5241;47.830;12.972;2023-05-14T00:39:50;10.60;99.90
10390;DHT22;5241;47.830;12.972;2023-05-14T00:42:16;10.50;99.90
10390;DHT22;5241;47.830;12.972;2023-05-14T00:44:42;10.50;99.90
10390;DHT22;5241;47.830;12.972;2023-05-14T00:47:07;10.50;99.90
10390;DHT22;5241;47.830;12.972;2023-05-14T00:49:33;10.50;99.90
10390;DHT22;5241;47.830;12.972;2023-05-14T00:51:59;10.60;99.90
10390;DHT22;5241;47.830;12.972;2023-05-14T00:54:25;10.60;99.90
10390;DHT22;5241;47.830;12.972;2023-05-14T00:56:51;10.60;99.90
10390;DHT22;5241;47.830;12.972;2023-05-14T00:59:18;10.60;99.90
10390;DHT22;5241;47.830;12.972;2023-05-14T01:01:43;10.60;99.90
10390;DHT22;5241;47.830;12.972;2023-05-14T01:04:09;10.60;99.90
10390;DHT22;5241;47.830;12.972;2023-05-14T01:06:48;10.60;99.90
10390;DHT22;5241;47.830;12.972;2023-05-14T01:09:35;10.50;99.90
10390;DHT22;5241;47.830;12.972;2023-05-14T01:12:33;10.50;99.90
10390;DHT22;5241;47.830;12.972;2023-05-14T01:15:09;10.40;99.90
10390;DHT22;5241;47.830;12.972;2023-05-14T01:17:53;10.50;99.90
10390;DHT22;5241;47.830;12.972;2023-05-14T01:20:20;10.40;99.90
10390;DHT22;5241;47.830;12.972;2023-05-14T01:22:46;10.40;99.90
10390;DHT22;5241;47.830;12.972;2023-05-14T01:25:11;10.40;99.90
10390;DHT22;5241;47.830;12.972;2023-05-14T01:27:49;10.50;99.90
10390;DHT22;5241;47.830;12.972;2023-05-14T01:32:56;10.60;99.90
10390;DHT22;5241;47.830;12.972;2023-05-14T01:35:25;10.60;99.90
10390;DHT22;5241;47.830;12.972;2023-05-14T01:37:53;10.60;99.90
10390;DHT22;5241;47.830;12.972;2023-05-14T01:40:19;10.60;99.90
10390;DHT22;5241;47.830;12.972;2023-05-14T01:42:45;10.60;99.90
10390;DHT22;5241;47.830;12.972;2023-05-14T01:45:11;10.60;99.90
10390;DHT22;5241;47.830;12.972;2023-05-14T01:47:37;10.60;99.90
10390;DHT22;5241;47.830;12.972;2023-05-14T01:50:02;10.60;99.90
10390;DHT22;5241;47.830;12.972;2023-05-14T01:52:28;10.60;99.90
10390;DHT22;5241;47.830;12.972;2023-05-14T01:54:54;10.60;99.90
10390;DHT22;5241;47.830;12.972;2023-05-14T01:57:20;10.50;99.90
10390;DHT22;5241;47.830;12.972;2023-05-14T01:59:54;10.60;99.90
10390;DHT22;5241;47.830;12.972;2023-05-14T02:02:20;10.50;99.90
10390;DHT22;5241;47.830;12.972;2023-05-14T02:04:45;10.40;99.90
10390;DHT22;5241;47.830;12.972;2023-05-14T02:07:11;10.30;99.90
10390;DHT22;5241;47.830;12.972;2023-05-14T02:09:37;10.30;99.90
10390;DHT22;5241;47.830;12.972;2023-05-14T02:12:03;10.20;99.90
10390;DHT22;5241;47.830;12.972;2023-05-14T02:14:28;10.20;99.90
10390;DHT22;5241;47.830;12.972;2023-05-14T02:16:54;10.20;99.90
10390;DHT22;5241;47.830;12.972;2023-05-14T02:19:19;10.10;99.90
10390;DHT22;5241;47.830;12.972;2023-05-14T02:21:46;10.10;99.90
10390;DHT22;5241;47.830;12.972;2023-05-14T02:24:12;10.20;99.90
10390;DHT22;5241;47.830;12.972;2023-05-14T02:26:38;10.20;99.90
10390;DHT22;5241;47.830;12.972;2023-05-14T02:29:03;10.10;99.90
10390;DHT22;5241;47.830;12.972;2023-05-14T02:31:29;10.20;99.90
10390;DHT22;5241;47.830;12.972;2023-05-14T02:33:54;10.20;99.90
10390;DHT22;5241;47.830;12.972;2023-05-14T02:36:20;10.10;99.90
10390;DHT22;5241;47.830;12.972;2023-05-14T02:38:45;9.90;99.90
10390;DHT22;5241;47.830;12.972;2023-05-14T02:41:11;9.70;99.90
10390;DHT22;5241;47.830;12.972;2023-05-14T02:43:36;9.80;99.90
10390;DHT22;5241;47.830;12.972;2023-05-14T02:46:02;9.90;99.90
10390;DHT22;5241;47.830;12.972;2023-05-14T02:48:28;9.90;99.90
10390;DHT22;5241;47.830;12.972;2023-05-14T02:50:53;9.90;99.90
10390;DHT22;5241;47.830;12.972;2023-05-14T02:53:19;9.80;99.90
10390;DHT22;5241;47.830;12.972;2023-05-14T02:55:44;9.80;99.90
10390;DHT22;5241;47.830;12.972;2023-05-14T02:58:10;9.80;99.90
10390;DHT22;5241;47.830;12.972;2023-05-14T03:00:36;9.70;99.90
10390;DHT22;5241;47.830;12.972;2023-05-14T03:03:01;9.70;99.90
10390;DHT22;5241;47.830;12.972;2023-05-14T03:05:27;9.60;99.90
10390;DHT22;5241;47.830;12.972;2023-05-14T03:07:52;9.50;99.90
10390;DHT22;5241;47.830;12.972;2023-05-14T03:10:18;9.50;99.90
10390;DHT22;5241;47.830;12.972;2023-05-14T03:12:44;9.50;99.90
10390;DHT22;5241;47.830;12.972;2023-05-14T03:15:10;9.40;99.90
10390;DHT22;5241;47.830;12.972;2023-05-14T03:17:35;9.30;99.90
10390;DHT22;5241;47.830;12.972;2023-05-14T03:20:01;9.20;99.90
10390;DHT22;5241;47.830;12.972;2023-05-14T03:22:28;9.10;99.90
10390;DHT22;5241;47.830;12.972;2023-05-14T03:24:53;9.00;99.90
10390;DHT22;5241;47.830;12.972;2023-05-14T03:27:19;9.00;99.90
10390;DHT22;5241;47.830;12.972;2023-05-14T03:29:45;9.00;99.90
10390;DHT22;5241;47.830;12.972;2023-05-14T03:32:10;8.90;99.90
10390;DHT22;5241;47.830;12.972;2023-05-14T03:34:36;8.90;99.90
10390;DHT22;5241;47.830;12.972;2023-05-14T03:37:02;8.90;99.90
10390;DHT22;5241;47.830;12.972;2023-05-14T03:39:27;9.00;99.90
10390;DHT22;5241;47.830;12.972;2023-05-14T03:41:53;9.10;99.90
10390;DHT22;5241;47.830;12.972;2023-05-14T03:44:18;9.00;99.90
10390;DHT22;5241;47.830;12.972;2023-05-14T03:46:44;9.10;99.90
10390;DHT22;5241;47.830;12.972;2023-05-14T03:49:09;9.10;99.90
10390;DHT22;5241;47.830;12.972;2023-05-14T03:51:35;9.30;99.90
10390;DHT22;5241;47.830;12.972;2023-05-14T03:54:03;9.40;99.90
10390;DHT22;5241;47.830;12.972;2023-05-14T03:56:29;9.40;99.90
10390;DHT22;5241;47.830;12.972;2023-05-14T03:58:55;9.40;99.90
10390;DHT22;5241;47.830;12.972;2023-05-14T04:01:20;9.50;99.90
10390;DHT22;5241;47.830;12.972;2023-05-14T04:03:46;9.70;99.90
10390;DHT22;5241;47.830;12.972;2023-05-14T04:06:12;9.70;99.90
10390;DHT22;5241;47.830;12.972;2023-05-14T04:08:37;9.80;99.90
10390;DHT22;5241;47.830;12.972;2023-05-14T04:11:03;9.80;99.90
10390;DHT22;5241;47.830;12.972;2023-05-14T04:13:28;9.80;99.90
10390;DHT22;5241;47.830;12.972;2023-05-14T04:15:54;9.80;99.90
10390;DHT22;5241;47.830;12.972;2023-05-14T04:18:19;9.90;99.90
10390;DHT22;5241;47.830;12.972;2023-05-14T04:20:45;9.90;99.90
10390;DHT22;5241;47.830;12.972;2023-05-14T04:23:11;10.00;99.90
10390;DHT22;5241;47.830;12.972;2023-05-14T04:25:36;10.00;99.90
10390;DHT22;5241;47.830;12.972;2023-05-14T04:28:02;10.00;99.90
10390;DHT22;5241;47.830;12.972;2023-05-14T04:30:27;10.00;99.90
10390;DHT22;5241;47.830;12.972;2023-05-14T04:32:53;10.10;99.90
10390;DHT22;5241;47.830;12.972;2023-05-14T04:35:19;10.20;99.90
10390;DHT22;5241;47.830;12.972;2023-05-14T04:37:45;10.20;99.90
10390;DHT22;5241;47.830;12.972;2023-05-14T04:40:11;10.30;99.90
10390;DHT22;5241;47.830;12.972;2023-05-14T04:42:37;10.30;99.90
10390;DHT22;5241;47.830;12.972;2023-05-14T04:45:03;10.30;99.90
10390;DHT22;5241;47.830;12.972;2023-05-14T04:47:30;10.40;99.90
10390;DHT22;5241;47.830;12.972;2023-05-14T04:49:55;10.50;99.90
10390;DHT22;5241;47.830;12.972;2023-05-14T04:52:22;10.50;99.90
10390;DHT22;5241;47.830;12.972;2023-05-14T04:54:48;10.60;99.90
10390;DHT22;5241;47.830;12.972;2023-05-14T04:57:13;10.70;99.90
10390;DHT22;5241;47.830;12.972;2023-05-14T04:59:39;10.70;99.90
10390;DHT22;5241;47.830;12.972;2023-05-14T05:02:04;10.70;99.90
10390;DHT22;5241;47.830;12.972;2023-05-14T05:04:30;10.70;99.90
10390;DHT22;5241;47.830;12.972;2023-05-14T05:06:56;10.70;99.90
10390;DHT22;5241;47.830;12.972;2023-05-14T05:09:21;10.70;99.90
10390;DHT22;5241;47.830;12.972;2023-05-14T05:11:47;10.90;99.90
10390;DHT22;5241;47.830;12.972;2023-05-14T05:14:12;11.00;99.90
10390;DHT22;5241;47.830;12.972;2023-05-14T05:16:38;11.10;99.90
10390;DHT22;5241;47.830;12.972;2023-05-14T05:19:03;11.10;99.90
10390;DHT22;5241;47.830;12.972;2023-05-14T05:21:29;11.20;99.90
10390;DHT22;5241;47.830;12.972;2023-05-14T05:23:58;11.30;99.90
10390;DHT22;5241;47.830;12.972;2023-05-14T05:26:25;11.30;99.90
10390;DHT22;5241;47.830;12.972;2023-05-14T05:28:51;11.40;99.90
10390;DHT22;5241;47.830;12.972;2023-05-14T05:31:16;11.60;99.90
10390;DHT22;5241;47.830;12.972;2023-05-14T05:33:42;11.70;99.90
10390;DHT22;5241;47.830;12.972;2023-05-14T05:36:08;11.70;99.90
10390;DHT22;5241;47.830;12.972;2023-05-14T05:38:33;11.60;99.90
10390;DHT22;5241;47.830;12.972;2023-05-14T05:40:59;11.50;99.90
10390;DHT22;5241;47.830;12.972;2023-05-14T05:43:25;11.60;99.90
10390;DHT22;5241;47.830;12.972;2023-05-14T05:45:50;11.70;99.90
10390;DHT22;5241;47.830;12.972;2023-05-14T05:48:16;11.60;99.90
10390;DHT22;5241;47.830;12.972;2023-05-14T05:50:41;11.70;99.90
10390;DHT22;5241;47.830;12.972;2023-05-14T05:53:09;11.70;99.90
10390;DHT22;5241;47.830;12.972;2023-05-14T05:55:34;11.80;99.90
10390;DHT22;5241;47.830;12.972;2023-05-14T05:58:03;11.90;99.90
10390;DHT22;5241;47.830;12.972;2023-05-14T06:00:29;11.60;99.90
10390;DHT22;5241;47.830;12.972;2023-05-14T06:02:55;11.60;99.90
10390;DHT22;5241;47.830;12.972;2023-05-14T06:05:21;11.60;99.90
10390;DHT22;5241;47.830;12.972;2023-05-14T06:07:46;11.70;99.90
10390;DHT22;5241;47.830;12.972;2023-05-14T06:10:12;11.80;99.90
10390;DHT22;5241;47.830;12.972;2023-05-14T06:12:37;12.10;99.90
10390;DHT22;5241;47.830;12.972;2023-05-14T06:15:03;12.40;99.90
10390;DHT22;5241;47.830;12.972;2023-05-14T06:17:29;12.60;99.90
10390;DHT22;5241;47.830;12.972;2023-05-14T06:19:54;12.60;99.90
10390;DHT22;5241;47.830;12.972;2023-05-14T06:22:20;12.60;99.90
10390;DHT22;5241;47.830;12.972;2023-05-14T06:24:50;12.60;99.90
10390;DHT22;5241;47.830;12.972;2023-05-14T06:27:18;12.70;99.90
10390;DHT22;5241;47.830;12.972;2023-05-14T06:29:44;12.50;99.90
10390;DHT22;5241;47.830;12.972;2023-05-14T06:32:09;12.60;99.90
10390;DHT22;5241;47.830;12.972;2023-05-14T06:34:36;12.80;99.90
10390;DHT22;5241;47.830;12.972;2023-05-14T06:37:01;12.90;99.90
10390;DHT22;5241;47.830;12.972;2023-05-14T06:39:28;12.80;99.90
10390;DHT22;5241;47.830;12.972;2023-05-14T06:41:53;12.80;99.90
10390;DHT22;5241;47.830;12.972;2023-05-14T06:44:19;12.70;99.90
10390;DHT22;5241;47.830;12.972;2023-05-14T06:46:45;12.70;99.90
10390;DHT22;5241;47.830;12.972;2023-05-14T06:49:10;12.70;99.90
10390;DHT22;5241;47.830;12.972;2023-05-14T06:51:36;12.70;99.90
10390;DHT22;5241;47.830;12.972;2023-05-14T06:54:03;12.80;99.90
10390;DHT22;5241;47.830;12.972;2023-05-14T06:56:29;12.90;99.90
10390;DHT22;5241;47.830;12.972;2023-05-14T06:58:58;13.00;99.90
10390;DHT22;5241;47.830;12.972;2023-05-14T07:01:23;12.90;99.90
10390;DHT22;5241;47.830;12.972;2023-05-14T07:03:49;13.10;99.90
10390;DHT22;5241;47.830;12.972;2023-05-14T07:06:14;13.40;99.90
10390;DHT22;5241;47.830;12.972;2023-05-14T07:08:41;13.40;99.90
10390;DHT22;5241;47.830;12.972;2023-05-14T07:11:06;13.20;99.90
10390;DHT22;5241;47.830;12.972;2023-05-14T07:13:32;13.20;99.90
10390;DHT22;5241;47.830;12.972;2023-05-14T07:15:57;13.10;99.90
10390;DHT22;5241;47.830;12.972;2023-05-14T07:18:23;13.20;99.90
10390;DHT22;5241;47.830;12.972;2023-05-14T07:20:48;13.20;99.90
10390;DHT22;5241;47.830;12.972;2023-05-14T07:23:14;13.10;99.90
10390;DHT22;5241;47.830;12.972;2023-05-14T07:25:40;13.10;99.90
10390;DHT22;5241;47.830;12.972;2023-05-14T07:28:05;13.00;99.90
10390;DHT22;5241;47.830;12.972;2023-05-14T07:30:31;13.00;99.90
10390;DHT22;5241;47.830;12.972;2023-05-14T07:32:57;13.10;99.90
10390;DHT22;5241;47.830;12.972;2023-05-14T07:35:22;13.30;99.90
10390;DHT22;5241;47.830;12.972;2023-05-14T07:37:48;13.30;99.90
10390;DHT22;5241;47.830;12.972;2023-05-14T07:40:13;13.30;99.90
10390;DHT22;5241;47.830;12.972;2023-05-14T07:42:39;13.60;99.90
10390;DHT22;5241;47.830;12.972;2023-05-14T07:45:05;13.90;99.90
10390;DHT22;5241;47.830;12.972;2023-05-14T07:47:31;14.10;99.90
10390;DHT22;5241;47.830;12.972;2023-05-14T07:49:58;14.10;99.90
10390;DHT22;5241;47.830;12.972;2023-05-14T07:52:23;14.20;99.90
10390;DHT22;5241;47.830;12.972;2023-05-14T07:54:50;14.30;99.90
10390;DHT22;5241;47.830;12.972;2023-05-14T07:57:19;14.50;99.90
10390;DHT22;5241;47.830;12.972;2023-05-14T07:59:46;14.90;99.90
10390;DHT22;5241;47.830;12.972;2023-05-14T08:02:14;14.40;99.90
10390;DHT22;5241;47.830;12.972;2023-05-14T08:04:41;14.20;99.90
10390;DHT22;5241;47.830;12.972;2023-05-14T08:07:08;14.50;99.90
10390;DHT22;5241;47.830;12.972;2023-05-14T08:09:33;15.00;99.90
10390;DHT22;5241;47.830;12.972;2023-05-14T08:11:59;14.80;99.90
10390;DHT22;5241;47.830;12.972;2023-05-14T08:14:25;14.80;99.90
10390;DHT22;5241;47.830;12.972;2023-05-14T08:16:50;15.00;99.90
10390;DHT22;5241;47.830;12.972;2023-05-14T08:19:16;15.40;99.90
10390;DHT22;5241;47.830;12.972;2023-05-14T08:21:42;15.50;99.90
10390;DHT22;5241;47.830;12.972;2023-05-14T08:24:07;16.10;99.90
10390;DHT22;5241;47.830;12.972;2023-05-14T08:26:33;15.90;99.90
10390;DHT22;5241;47.830;12.972;2023-05-14T08:28:58;16.50;99.90
10390;DHT22;5241;47.830;12.972;2023-05-14T08:31:24;16.40;99.90
10390;DHT22;5241;47.830;12.972;2023-05-14T08:33:50;16.40;99.90
10390;DHT22;5241;47.830;12.972;2023-05-14T08:36:15;16.10;99.90
10390;DHT22;5241;47.830;12.972;2023-05-14T08:38:41;16.10;99.90
10390;DHT22;5241;47.830;12.972;2023-05-14T08:41:07;15.70;99.90
10390;DHT22;5241;47.830;12.972;2023-05-14T08:46:29;16.00;99.90
10390;DHT22;5241;47.830;12.972;2023-05-14T08:48:59;15.60;99.90
10390;DHT22;5241;47.830;12.972;2023-05-14T08:51:28;15.10;99.90
10390;DHT22;5241;47.830;12.972;2023-05-14T08:53:54;14.40;99.90
10390;DHT22;5241;47.830;12.972;2023-05-14T08:56:21;14.50;99.90
10390;DHT22;5241;47.830;12.972;2023-05-14T08:58:48;14.10;99.90
10390;DHT22;5241;47.830;12.972;2023-05-14T09:01:13;14.00;99.90
10390;DHT22;5241;47.830;12.972;2023-05-14T09:03:39;13.90;99.90
10390;DHT22;5241;47.830;12.972;2023-05-14T09:06:05;14.10;99.90
10390;DHT22;5241;47.830;12.972;2023-05-14T09:08:32;14.10;99.90
10390;DHT22;5241;47.830;12.972;2023-05-14T09:10:59;14.10;99.90
10390;DHT22;5241;47.830;12.972;2023-05-14T09:13:27;14.10;99.90
10390;DHT22;5241;47.830;12.972;2023-05-14T09:15:53;14.00;99.90
10390;DHT22;5241;47.830;12.972;2023-05-14T09:18:19;13.90;99.90
10390;DHT22;5241;47.830;12.972;2023-05-14T09:20:46;13.90;99.90
10390;DHT22;5241;47.830;12.972;2023-05-14T09:23:11;13.90;99.90
10390;DHT22;5241;47.830;12.972;2023-05-14T09:25:37;13.90;99.90
10390;DHT22;5241;47.830;12.972;2023-05-14T09:28:05;14.10;99.90
10390;DHT22;5241;47.830;12.972;2023-05-14T09:30:31;14.10;99.90
10390;DHT22;5241;47.830;12.972;2023-05-14T09:32:59;14.20;99.90
10390;DHT22;5241;47.830;12.972;2023-05-14T09:35:24;14.20;99.90
10390;DHT22;5241;47.830;12.972;2023-05-14T09:37:51;14.20;99.90
10390;DHT22;5241;47.830;12.972;2023-05-14T09:40:19;14.30;99.90
10390;DHT22;5241;47.830;12.972;2023-05-14T09:42:49;14.30;99.90
10390;DHT22;5241;47.830;12.972;2023-05-14T09:45:15;14.60;99.90
10390;DHT22;5241;47.830;12.972;2023-05-14T09:47:41;14.60;99.90
10390;DHT22;5241;47.830;12.972;2023-05-14T09:50:07;14.70;99.90
10390;DHT22;5241;47.830;12.972;2023-05-14T09:52:34;14.70;99.90
10390;DHT22;5241;47.830;12.972;2023-05-14T09:55:00;14.50;99.90
10390;DHT22;5241;47.830;12.972;2023-05-14T09:57:26;14.60;99.90
10390;DHT22;5241;47.830;12.972;2023-05-14T09:59:52;15.10;99.90
10390;DHT22;5241;47.830;12.972;2023-05-14T10:02:22;15.10;99.90
10390;DHT22;5241;47.830;12.972;2023-05-14T10:04:50;15.30;99.90
10390;DHT22;5241;47.830;12.972;2023-05-14T10:07:20;15.10;99.90
10390;DHT22;5241;47.830;12.972;2023-05-14T10:09:46;15.10;99.90
10390;DHT22;5241;47.830;12.972;2023-05-14T10:12:15;15.30;99.90
10390;DHT22;5241;47.830;12.972;2023-05-14T10:14:49;15.50;99.90
10390;DHT22;5241;47.830;12.972;2023-05-14T10:17:20;15.80;99.90
10390;DHT22;5241;47.830;12.972;2023-05-14T10:19:53;15.80;99.90
10390;DHT22;5241;47.830;12.972;2023-05-14T10:22:33;15.90;99.90
10390;DHT22;5241;47.830;12.972;2023-05-14T10:25:02;16.30;99.90
10390;DHT22;5241;47.830;12.972;2023-05-14T10:27:28;16.00;99.90
10390;DHT22;5241;47.830;12.972;2023-05-14T10:29:54;16.00;99.90
10390;DHT22;5241;47.830;12.972;2023-05-14T10:32:21;16.30;99.90
10390;DHT22;5241;47.830;12.972;2023-05-14T10:34:49;16.40;99.90
10390;DHT22;5241;47.830;12.972;2023-05-14T10:37:15;16.40;99.90
10390;DHT22;5241;47.830;12.972;2023-05-14T10:39:49;16.70;99.90
10390;DHT22;5241;47.830;12.972;2023-05-14T10:42:17;17.10;99.90
10390;DHT22;5241;47.830;12.972;2023-05-14T10:45:10;17.00;99.90
10390;DHT22;5241;47.830;12.972;2023-05-14T10:47:38;17.10;99.90
10390;DHT22;5241;47.830;12.972;2023-05-14T10:50:06;16.90;99.90
10390;DHT22;5241;47.830;12.972;2023-05-14T10:52:32;17.00;99.90
10390;DHT22;5241;47.830;12.972;2023-05-14T10:54:59;16.80;99.90
10390;DHT22;5241;47.830;12.972;2023-05-14T10:57:29;16.40;99.90
10390;DHT22;5241;47.830;12.972;2023-05-14T10:59:58;16.20;99.90
10390;DHT22;5241;47.830;12.972;2023-05-14T11:02:38;16.20;99.90
10390;DHT22;5241;47.830;12.972;2023-05-14T11:05:06;16.30;99.90
10390;DHT22;5241;47.830;12.972;2023-05-14T11:07:37;16.00;99.90
10390;DHT22;5241;47.830;12.972;2023-05-14T11:10:11;15.90;99.90
10390;DHT22;5241;47.830;12.972;2023-05-14T11:12:39;15.80;99.90
10390;DHT22;5241;47.830;12.972;2023-05-14T11:15:13;15.90;99.90
10390;DHT22;5241;47.830;12.972;2023-05-14T11:17:40;16.10;99.90
10390;DHT22;5241;47.830;12.972;2023-05-14T11:20:06;16.50;99.90
10390;DHT22;5241;47.830;12.972;2023-05-14T11:22:32;16.70;99.90
10390;DHT22;5241;47.830;12.972;2023-05-14T11:24:58;16.80;99.90
10390;DHT22;5241;47.830;12.972;2023-05-14T11:27:24;17.00;99.90
10390;DHT22;5241;47.830;12.972;2023-05-14T11:29:50;16.80;99.90
10390;DHT22;5241;47.830;12.972;2023-05-14T11:32:17;17.00;99.90
10390;DHT22;5241;47.830;12.972;2023-05-14T11:34:44;16.90;99.90
10390;DHT22;5241;47.830;12.972;2023-05-14T11:37:10;17.00;99.90
10390;DHT22;5241;47.830;12.972;2023-05-14T11:39:37;16.80;99.90
10390;DHT22;5241;47.830;12.972;2023-05-14T11:42:10;16.60;99.90
10390;DHT22;5241;47.830;12.972;2023-05-14T11:44:40;17.00;99.90
10390;DHT22;5241;47.830;12.972;2023-05-14T11:47:06;16.70;99.90
10390;DHT22;5241;47.830;12.972;2023-05-14T11:49:32;16.70;99.90
10390;DHT22;5241;47.830;12.972;2023-05-14T11:52:03;16.70;99.90
10390;DHT22;5241;47.830;12.972;2023-05-14T11:54:30;16.20;99.90
10390;DHT22;5241;47.830;12.972;2023-05-14T11:56:56;16.00;99.90
10390;DHT22;5241;47.830;12.972;2023-05-14T11:59:30;16.10;99.90
10390;DHT22;5241;47.830;12.972;2023-05-14T12:01:57;16.40;99.90
10390;DHT22;5241;47.830;12.972;2023-05-14T12:04:23;16.60;99.90
10390;DHT22;5241;47.830;12.972;2023-05-14T12:06:50;16.80;99.90
10390;DHT22;5241;47.830;12.972;2023-05-14T12:09:20;17.00;99.90
10390;DHT22;5241;47.830;12.972;2023-05-14T12:11:47;17.00;99.90
10390;DHT22;5241;47.830;12.972;2023-05-14T12:14:23;16.90;99.90
10390;DHT22;5241;47.830;12.972;2023-05-14T12:16:49;16.60;99.90
10390;DHT22;5241;47.830;12.972;2023-05-14T12:19:18;16.30;99.90
10390;DHT22;5241;47.830;12.972;2023-05-14T12:21:47;16.10;99.90
10390;DHT22;5241;47.830;12.972;2023-05-14T12:24:19;15.90;99.90
10390;DHT22;5241;47.830;12.972;2023-05-14T12:26:49;15.80;99.90
10390;DHT22;5241;47.830;12.972;2023-05-14T12:29:16;16.00;99.90
10390;DHT22;5241;47.830;12.972;2023-05-14T12:31:49;16.60;99.90
10390;DHT22;5241;47.830;12.972;2023-05-14T12:34:15;17.20;99.90
10390;DHT22;5241;47.830;12.972;2023-05-14T12:36:42;17.00;99.90
10390;DHT22;5241;47.830;12.972;2023-05-14T12:39:07;17.50;99.90
10390;DHT22;5241;47.830;12.972;2023-05-14T12:41:34;17.20;99.90
10390;DHT22;5241;47.830;12.972;2023-05-14T12:44:02;16.80;99.90
10390;DHT22;5241;47.830;12.972;2023-05-14T12:46:28;17.20;99.90
10390;DHT22;5241;47.830;12.972;2023-05-14T12:48:54;17.20;99.90
10390;DHT22;5241;47.830;12.972;2023-05-14T12:51:20;17.60;99.90
10390;DHT22;5241;47.830;12.972;2023-05-14T12:53:45;18.10;99.90
10390;DHT22;5241;47.830;12.972;2023-05-14T12:56:11;18.40;99.90
10390;DHT22;5241;47.830;12.972;2023-05-14T12:58:37;18.50;99.90
10390;DHT22;5241;47.830;12.972;2023-05-14T13:01:04;18.30;99.90
10390;DHT22;5241;47.830;12.972;2023-05-14T13:03:29;17.60;99.90
10390;DHT22;5241;47.830;12.972;2023-05-14T13:05:55;17.20;99.90
10390;DHT22;5241;47.830;12.972;2023-05-14T13:08:21;16.60;99.90
10390;DHT22;5241;47.830;12.972;2023-05-14T13:10:49;16.10;99.90
10390;DHT22;5241;47.830;12.972;2023-05-14T13:13:15;15.80;99.90
10390;DHT22;5241;47.830;12.972;2023-05-14T13:15:41;15.50;99.90
10390;DHT22;5241;47.830;12.972;2023-05-14T13:18:06;15.30;99.90
10390;DHT22;5241;47.830;12.972;2023-05-14T13:20:33;14.70;99.90
10390;DHT22;5241;47.830;12.972;2023-05-14T13:22:58;14.10;99.90
10390;DHT22;5241;47.830;12.972;2023-05-14T13:25:24;13.60;99.90
10390;DHT22;5241;47.830;12.972;2023-05-14T13:27:50;13.20;99.90
10390;DHT22;5241;47.830;12.972;2023-05-14T13:30:16;13.20;99.90
10390;DHT22;5241;47.830;12.972;2023-05-14T13:32:42;13.10;99.90
10390;DHT22;5241;47.830;12.972;2023-05-14T13:35:09;13.30;99.90
10390;DHT22;5241;47.830;12.972;2023-05-14T13:37:35;13.30;99.90
10390;DHT22;5241;47.830;12.972;2023-05-14T13:40:01;13.40;99.90
10390;DHT22;5241;47.830;12.972;2023-05-14T13:42:28;13.60;99.90
10390;DHT22;5241;47.830;12.972;2023-05-14T13:44:54;14.00;99.90
10390;DHT22;5241;47.830;12.972;2023-05-14T13:47:20;14.20;99.90
10390;DHT22;5241;47.830;12.972;2023-05-14T13:49:46;14.30;99.90
10390;DHT22;5241;47.830;12.972;2023-05-14T13:52:11;14.30;99.90
10390;DHT22;5241;47.830;12.972;2023-05-14T13:54:37;14.00;99.90
10390;DHT22;5241;47.830;12.972;2023-05-14T13:57:03;13.90;99.90
10390;DHT22;5241;47.830;12.972;2023-05-14T13:59:28;13.90;99.90
10390;DHT22;5241;47.830;12.972;2023-05-14T14:01:54;13.80;99.90
10390;DHT22;5241;47.830;12.972;2023-05-14T14:04:20;13.80;99.90
10390;DHT22;5241;47.830;12.972;2023-05-14T14:06:46;13.80;99.90
10390;DHT22;5241;47.830;12.972;2023-05-14T14:09:11;13.70;99.90
10390;DHT22;5241;47.830;12.972;2023-05-14T14:11:38;13.60;99.90
10390;DHT22;5241;47.830;12.972;2023-05-14T14:14:03;13.60;99.90
10390;DHT22;5241;47.830;12.972;2023-05-14T14:16:29;13.60;99.90
10390;DHT22;5241;47.830;12.972;2023-05-14T14:18:55;13.60;99.90
10390;DHT22;5241;47.830;12.972;2023-05-14T14:21:21;13.50;99.90
10390;DHT22;5241;47.830;12.972;2023-05-14T14:23:47;13.40;99.90
10390;DHT22;5241;47.830;12.972;2023-05-14T14:26:12;13.40;99.90
10390;DHT22;5241;47.830;12.972;2023-05-14T14:28:38;13.40;99.90
10390;DHT22;5241;47.830;12.972;2023-05-14T14:31:05;13.40;99.90
10390;DHT22;5241;47.830;12.972;2023-05-14T14:33:30;13.20;99.90
10390;DHT22;5241;47.830;12.972;2023-05-14T14:35:56;13.20;99.90
10390;DHT22;5241;47.830;12.972;2023-05-14T14:38:21;13.00;99.90
10390;DHT22;5241;47.830;12.972;2023-05-14T14:40:47;13.00;99.90
10390;DHT22;5241;47.830;12.972;2023-05-14T14:43:13;12.90;99.90
10390;DHT22;5241;47.830;12.972;2023-05-14T14:45:38;12.90;99.90
10390;DHT22;5241;47.830;12.972;2023-05-14T14:48:27;12.80;99.90
10390;DHT22;5241;47.830;12.972;2023-05-14T14:50:53;12.70;99.90
10390;DHT22;5241;47.830;12.972;2023-05-14T14:53:20;12.70;99.90
10390;DHT22;5241;47.830;12.972;2023-05-14T14:55:47;12.60;99.90
10390;DHT22;5241;47.830;12.972;2023-05-14T14:58:12;12.50;99.90
10390;DHT22;5241;47.830;12.972;2023-05-14T15:00:38;12.50;99.90
10390;DHT22;5241;47.830;12.972;2023-05-14T15:03:05;12.50;99.90
10390;DHT22;5241;47.830;12.972;2023-05-14T15:05:30;12.40;99.90
10390;DHT22;5241;47.830;12.972;2023-05-14T15:07:56;12.40;99.90
10390;DHT22;5241;47.830;12.972;2023-05-14T15:10:21;12.50;99.90
10390;DHT22;5241;47.830;12.972;2023-05-14T15:12:47;12.60;99.90
10390;DHT22;5241;47.830;12.972;2023-05-14T15:15:12;12.50;99.90
10390;DHT22;5241;47.830;12.972;2023-05-14T15:17:38;12.40;99.90
10390;DHT22;5241;47.830;12.972;2023-05-14T15:20:04;12.40;99.90
10390;DHT22;5241;47.830;12.972;2023-05-14T15:22:31;12.30;99.90
10390;DHT22;5241;47.830;12.972;2023-05-14T15:24:57;12.20;99.90
10390;DHT22;5241;47.830;12.972;2023-05-14T15:27:22;12.10;99.90
10390;DHT22;5241;47.830;12.972;2023-05-14T15:29:48;12.00;99.90
10390;DHT22;5241;47.830;12.972;2023-05-14T15:32:13;12.00;99.90
10390;DHT22;5241;47.830;12.972;2023-05-14T15:34:40;11.80;99.90